Time;durP1;ratioP1;P1;durP2;ratioP2;P2;SDS_P1;SDS_P2;PMS_P1;PMS_P2;Temp;Humidity;BMP_temperature;BMP_pressure;BME280_temperature;BME280_humidity;BME280_pressure;Samples;Min_cycle;Max_cycle;Signal;HPM_P1;HPM_P2
2021/09/03 00:01:22;;;;;;;0.00;0.00;;;;;;;;;;5011969;28;20680;-73
2021/09/03 00:03:50;;;;;;;0.00;0.00;;;;;;;;;;5005513;28;20738;-77
2021/09/03 00:06:18;;;;;;;0.00;0.00;;;;;;;;;;5009723;28;20903;-73
2021/09/03 00:08:46;;;;;;;0.00;0.00;;;;;;;;;;5006032;28;20580;-76
2021/09/03 00:11:13;;;;;;;0.00;0.00;;;;;;;;;;5008279;28;20265;-74
2021/09/03 00:13:41;;;;;;;0.00;0.00;;;;;;;;;;5009922;28;20235;-72
2021/09/03 00:16:08;;;;;;;0.23;0.23;;;;;;;;;;5009166;28;20203;-74
2021/09/03 00:18:36;;;;;;;0.00;0.00;;;;;;;;;;5009327;28;20216;-74
2021/09/03 00:21:03;;;;;;;0.90;0.87;;;;;;;;;;5008843;28;20209;-75
2021/09/03 00:23:32;;;;;;;0.00;0.00;;;;;;;;;;5004907;28;20224;-74
2021/09/03 00:26:00;;;;;;;0.00;0.00;;;;;;;;;;5005958;28;20229;-75
2021/09/03 00:28:27;;;;;;;0.00;0.00;;;;;;;;;;5008352;28;20681;-75
2021/09/03 00:30:54;;;;;;;0.10;0.10;;;;;;;;;;5005677;28;20811;-74
2021/09/03 00:33:22;;;;;;;0.00;0.00;;;;;;;;;;5008439;28;20902;-73
2021/09/03 00:35:49;;;;;;;0.00;0.00;;;;;;;;;;5008601;28;20211;-73
2021/09/03 00:38:17;;;;;;;0.00;0.00;;;;;;;;;;5006916;28;20204;-74
2021/09/03 00:40:45;;;;;;;0.30;0.30;;;;;;;;;;5007860;28;20239;-75
2021/09/03 00:43:13;;;;;;;0.00;0.00;;;;;;;;;;5015073;28;22241;-74
2021/09/03 00:45:40;;;;;;;0.00;0.00;;;;;;;;;;5016966;28;20205;-73
2021/09/03 00:48:07;;;;;;;0.00;0.00;;;;;;;;;;5019066;28;20196;-74
2021/09/03 00:50:35;;;;;;;0.27;0.27;;;;;;;;;;5020375;28;20207;-72
2021/09/03 00:53:04;;;;;;;0.00;0.00;;;;;;;;;;5016703;28;20208;-72
2021/09/03 00:55:31;;;;;;;0.00;0.00;;;;;;;;;;5018915;28;20212;-75
2021/09/03 00:58:00;;;;;;;0.00;0.00;;;;;;;;;;5020851;28;20201;-73
2021/09/03 01:00:27;;;;;;;0.00;0.00;;;;;;;;;;5018098;28;21869;-76
2021/09/03 01:02:55;;;;;;;0.00;0.00;;;;;;;;;;5018140;28;20212;-73
2021/09/03 01:05:23;;;;;;;0.00;0.00;;;;;;;;;;5019063;28;20200;-75
2021/09/03 01:07:51;;;;;;;0.00;0.00;;;;;;;;;;5017805;28;20232;-73
2021/09/03 01:10:19;;;;;;;0.00;0.00;;;;;;;;;;5018115;28;20266;-75
2021/09/03 01:12:47;;;;;;;0.00;0.00;;;;;;;;;;5016415;28;20741;-73
2021/09/03 01:15:16;;;;;;;0.00;0.00;;;;;;;;;;5019045;28;20653;-72
2021/09/03 01:17:43;;;;;;;0.00;0.00;;;;;;;;;;5017652;28;20233;-75
2021/09/03 01:20:12;;;;;;;0.00;0.00;;;;;;;;;;5017265;28;20557;-74
2021/09/03 01:22:41;;;;;;;0.00;0.00;;;;;;;;;;5018497;28;20265;-74
2021/09/03 01:25:09;;;;;;;0.33;0.33;;;;;;;;;;5017169;28;20232;-76
2021/09/03 01:27:36;;;;;;;0.00;0.00;;;;;;;;;;5017240;28;20637;-78
2021/09/03 01:30:04;;;;;;;0.17;0.13;;;;;;;;;;5020499;28;20303;-73
2021/09/03 01:32:33;;;;;;;0.00;0.00;;;;;;;;;;5019652;28;20673;-73
2021/09/03 01:35:01;;;;;;;0.00;0.00;;;;;;;;;;5019893;28;20219;-75
2021/09/03 01:37:28;;;;;;;0.00;0.00;;;;;;;;;;5021169;28;20279;-82
2021/09/03 01:39:57;;;;;;;0.00;0.00;;;;;;;;;;5023258;28;20677;-74
2021/09/03 01:42:25;;;;;;;0.00;0.00;;;;;;;;;;5021014;28;20208;-74
2021/09/03 01:44:52;;;;;;;0.00;0.00;;;;;;;;;;5022855;28;20673;-75
2021/09/03 01:47:19;;;;;;;0.00;0.00;;;;;;;;;;5022520;28;20237;-74
2021/09/03 01:49:47;;;;;;;0.00;0.00;;;;;;;;;;5022378;28;20196;-75
2021/09/03 01:52:14;;;;;;;0.00;0.00;;;;;;;;;;5023473;28;20207;-74
2021/09/03 01:54:42;;;;;;;0.00;0.00;;;;;;;;;;5024124;28;20224;-78
2021/09/03 01:57:10;;;;;;;0.00;0.00;;;;;;;;;;5022176;28;20674;-76
2021/09/03 01:59:38;;;;;;;0.00;0.00;;;;;;;;;;5021200;28;20235;-78
2021/09/03 02:02:05;;;;;;;0.00;0.00;;;;;;;;;;5021201;28;20208;-74
2021/09/03 02:04:33;;;;;;;0.00;0.00;;;;;;;;;;5022327;28;20208;-73
2021/09/03 02:07:00;;;;;;;0.00;0.00;;;;;;;;;;5021585;28;20223;-74
2021/09/03 02:09:27;;;;;;;0.00;0.00;;;;;;;;;;5021072;28;20219;-73
2021/09/03 02:11:55;;;;;;;0.67;0.67;;;;;;;;;;5021728;28;20196;-74
2021/09/03 02:14:23;;;;;;;0.00;0.00;;;;;;;;;;5021226;28;20577;-73
2021/09/03 02:16:51;;;;;;;0.00;0.00;;;;;;;;;;5020191;28;20662;-75
2021/09/03 02:19:18;;;;;;;0.10;0.10;;;;;;;;;;5018660;28;20210;-76
2021/09/03 02:21:46;;;;;;;0.57;0.40;;;;;;;;;;5022873;28;20695;-73
2021/09/03 02:24:13;;;;;;;0.00;0.00;;;;;;;;;;5024205;28;20211;-74
2021/09/03 02:26:40;;;;;;;0.00;0.00;;;;;;;;;;5021139;28;20240;-74
2021/09/03 02:29:08;;;;;;;0.70;0.57;;;;;;;;;;5021910;28;20200;-74
2021/09/03 02:31:37;;;;;;;0.17;0.17;;;;;;;;;;5020514;28;20263;-74
2021/09/03 02:34:04;;;;;;;0.00;0.00;;;;;;;;;;5023238;28;20212;-73
2021/09/03 02:36:32;;;;;;;0.30;0.30;;;;;;;;;;5022401;28;20204;-74
2021/09/03 02:39:00;;;;;;;0.00;0.00;;;;;;;;;;5022339;28;20204;-75
2021/09/03 02:41:27;;;;;;;0.33;0.20;;;;;;;;;;5020076;28;20689;-79
2021/09/03 02:43:55;;;;;;;0.20;0.20;;;;;;;;;;5018786;28;20201;-73
2021/09/03 02:46:22;;;;;;;0.00;0.00;;;;;;;;;;5016327;28;20212;-76
2021/09/03 02:48:51;;;;;;;0.00;0.00;;;;;;;;;;5019858;28;20266;-78
2021/09/03 02:51:18;;;;;;;0.00;0.00;;;;;;;;;;5018858;28;20212;-75
2021/09/03 02:53:46;;;;;;;0.00;0.00;;;;;;;;;;5018630;28;20216;-79
2021/09/03 02:56:13;;;;;;;0.00;0.00;;;;;;;;;;5021230;28;20204;-75
2021/09/03 02:58:40;;;;;;;0.00;0.00;;;;;;;;;;5018508;28;20239;-77
2021/09/03 03:01:08;;;;;;;0.00;0.00;;;;;;;;;;5021702;28;20211;-76
2021/09/03 03:03:35;;;;;;;0.00;0.00;;;;;;;;;;5020804;28;20205;-74
2021/09/03 03:06:04;;;;;;;0.00;0.00;;;;;;;;;;5018293;28;20224;-74
2021/09/03 03:08:31;;;;;;;0.77;0.77;;;;;;;;;;5017404;28;20270;-74
2021/09/03 03:10:59;;;;;;;0.00;0.00;;;;;;;;;;5020279;28;20241;-80
2021/09/03 03:13:28;;;;;;;0.00;0.00;;;;;;;;;;5021965;28;20296;-74
2021/09/03 03:15:55;;;;;;;0.00;0.00;;;;;;;;;;5019193;28;20581;-74
2021/09/03 03:18:23;;;;;;;0.00;0.00;;;;;;;;;;5019188;28;20205;-75
2021/09/03 03:20:51;;;;;;;0.23;0.23;;;;;;;;;;5021546;28;20358;-74
2021/09/03 03:23:20;;;;;;;0.00;0.00;;;;;;;;;;5020467;28;20201;-74
2021/09/03 03:25:47;;;;;;;0.10;0.10;;;;;;;;;;5020671;28;20568;-75
2021/09/03 03:28:15;;;;;;;0.00;0.00;;;;;;;;;;5019967;28;20236;-77
2021/09/03 03:30:42;;;;;;;0.00;0.00;;;;;;;;;;5020484;28;20204;-76
2021/09/03 03:33:10;;;;;;;0.00;0.00;;;;;;;;;;5018897;28;20220;-75
2021/09/03 03:35:37;;;;;;;0.00;0.00;;;;;;;;;;5020437;28;20208;-74
2021/09/03 03:38:06;;;;;;;0.03;0.03;;;;;;;;;;5019289;28;20680;-73
2021/09/03 03:40:34;;;;;;;0.00;0.00;;;;;;;;;;5018269;28;20287;-73
2021/09/03 03:43:02;;;;;;;0.00;0.00;;;;;;;;;;5020251;28;21891;-73
2021/09/03 03:45:29;;;;;;;0.00;0.00;;;;;;;;;;5020699;28;20201;-75
2021/09/03 03:47:56;;;;;;;0.00;0.00;;;;;;;;;;5019169;28;20234;-76
2021/09/03 03:50:24;;;;;;;0.77;0.77;;;;;;;;;;5018290;28;20212;-75
2021/09/03 03:52:51;;;;;;;0.53;0.50;;;;;;;;;;5019612;28;20203;-74
2021/09/03 03:55:19;;;;;;;0.10;0.10;;;;;;;;;;5020791;28;20686;-76
2021/09/03 03:57:47;;;;;;;0.00;0.00;;;;;;;;;;5018211;28;20274;-74
2021/09/03 04:00:15;;;;;;;0.00;0.00;;;;;;;;;;5022238;28;20200;-74
2021/09/03 04:02:43;;;;;;;0.00;0.00;;;;;;;;;;5020213;28;20266;-74
2021/09/03 04:05:10;;;;;;;0.00;0.00;;;;;;;;;;5019140;28;20205;-73
2021/09/03 04:07:38;;;;;;;0.00;0.00;;;;;;;;;;5020116;28;20243;-74
2021/09/03 04:10:06;;;;;;;0.00;0.00;;;;;;;;;;5018313;28;20200;-73
2021/09/03 04:12:33;;;;;;;0.00;0.00;;;;;;;;;;5020403;28;20896;-74
2021/09/03 04:15:02;;;;;;;0.00;0.00;;;;;;;;;;5016523;28;20292;-77
2021/09/03 04:17:29;;;;;;;0.00;0.00;;;;;;;;;;5018333;28;20196;-74
2021/09/03 04:19:57;;;;;;;0.00;0.00;;;;;;;;;;5018812;28;20197;-74
2021/09/03 04:22:24;;;;;;;0.00;0.00;;;;;;;;;;5019778;28;20208;-80
2021/09/03 04:24:51;;;;;;;0.40;0.40;;;;;;;;;;5016968;28;20213;-74
2021/09/03 04:27:19;;;;;;;0.00;0.00;;;;;;;;;;5018648;28;20720;-75
2021/09/03 04:29:46;;;;;;;0.00;0.00;;;;;;;;;;5018764;28;20212;-75
2021/09/03 04:32:15;;;;;;;0.00;0.00;;;;;;;;;;5017043;28;20700;-76
2021/09/03 04:34:43;;;;;;;0.00;0.00;;;;;;;;;;5017450;28;20239;-75
2021/09/03 04:37:12;;;;;;;0.00;0.00;;;;;;;;;;5019072;28;20267;-78
2021/09/03 04:39:39;;;;;;;0.00;0.00;;;;;;;;;;5020223;28;20270;-75
2021/09/03 04:42:06;;;;;;;0.00;0.00;;;;;;;;;;5019686;28;20704;-75
2021/09/03 04:44:34;;;;;;;0.00;0.00;;;;;;;;;;5019948;28;20692;-76
2021/09/03 04:47:01;;;;;;;0.00;0.00;;;;;;;;;;5021023;28;20677;-74
2021/09/03 04:49:30;;;;;;;0.00;0.00;;;;;;;;;;5026030;28;20338;-75
2021/09/03 04:51:57;;;;;;;0.00;0.00;;;;;;;;;;5029049;28;20573;-75
2021/09/03 04:54:25;;;;;;;0.00;0.00;;;;;;;;;;5016806;28;20205;-78
2021/09/03 04:56:52;;;;;;;0.00;0.00;;;;;;;;;;5017441;28;20200;-74
2021/09/03 04:59:20;;;;;;;0.00;0.00;;;;;;;;;;5019707;28;20351;-75
2021/09/03 05:01:47;;;;;;;0.00;0.00;;;;;;;;;;5019481;28;20693;-78
2021/09/03 05:04:14;;;;;;;0.00;0.00;;;;;;;;;;5013655;28;20220;-75
2021/09/03 05:06:43;;;;;;;0.00;0.00;;;;;;;;;;5005930;28;20247;-76
2021/09/03 05:09:10;;;;;;;0.00;0.00;;;;;;;;;;5006873;28;20227;-74
2021/09/03 05:11:38;;;;;;;0.00;0.00;;;;;;;;;;5004298;28;20201;-74
2021/09/03 05:14:05;;;;;;;0.00;0.00;;;;;;;;;;5009344;28;20211;-77
2021/09/03 05:16:32;;;;;;;0.00;0.00;;;;;;;;;;5009338;28;20201;-74
2021/09/03 05:19:00;;;;;;;0.00;0.00;;;;;;;;;;5013761;28;20200;-74
2021/09/03 05:21:27;;;;;;;0.93;0.93;;;;;;;;;;5006787;28;20216;-82
2021/09/03 05:23:56;;;;;;;0.00;0.00;;;;;;;;;;5003927;28;20804;-75
2021/09/03 05:26:24;;;;;;;0.00;0.00;;;;;;;;;;5007241;28;20208;-76
2021/09/03 05:28:51;;;;;;;0.00;0.00;;;;;;;;;;5007005;28;20232;-77
2021/09/03 05:31:18;;;;;;;0.00;0.00;;;;;;;;;;5008512;28;20203;-75
2021/09/03 05:33:46;;;;;;;0.00;0.00;;;;;;;;;;5009082;28;20200;-78
2021/09/03 05:36:13;;;;;;;0.20;0.20;;;;;;;;;;5015284;28;20213;-75
2021/09/03 05:38:41;;;;;;;0.00;0.00;;;;;;;;;;5016727;28;20208;-77
2021/09/03 05:41:09;;;;;;;0.47;0.47;;;;;;;;;;5020515;28;20560;-75
2021/09/03 05:43:37;;;;;;;0.20;0.20;;;;;;;;;;5014321;28;20216;-75
2021/09/03 05:46:04;;;;;;;0.00;0.00;;;;;;;;;;5016001;28;20213;-75
2021/09/03 05:48:31;;;;;;;0.00;0.00;;;;;;;;;;5015618;28;20224;-74
2021/09/03 05:50:59;;;;;;;0.10;0.10;;;;;;;;;;5016873;28;20200;-76
2021/09/03 05:53:26;;;;;;;0.03;0.03;;;;;;;;;;5018990;28;20614;-74
2021/09/03 05:55:54;;;;;;;0.03;0.03;;;;;;;;;;5019302;28;20315;-75
2021/09/03 05:58:23;;;;;;;0.20;0.20;;;;;;;;;;5008622;28;20236;-75
2021/09/03 06:00:50;;;;;;;0.60;0.60;;;;;;;;;;5006822;28;20213;-76
2021/09/03 06:03:17;;;;;;;0.13;0.13;;;;;;;;;;5004274;28;20259;-75
2021/09/03 06:05:45;;;;;;;0.00;0.00;;;;;;;;;;5007416;28;20247;-74
2021/09/03 06:08:12;;;;;;;1.20;0.83;;;;;;;;;;5006585;28;20285;-76
2021/09/03 06:10:39;;;;;;;0.23;0.23;;;;;;;;;;5015700;28;20220;-74
2021/09/03 06:13:07;;;;;;;1.13;0.60;;;;;;;;;;5015619;28;20212;-75
2021/09/03 06:15:35;;;;;;;0.00;0.00;;;;;;;;;;5020767;28;20207;-74
2021/09/03 06:18:03;;;;;;;0.10;0.10;;;;;;;;;;5018723;28;20200;-76
2021/09/03 06:20:30;;;;;;;0.10;0.10;;;;;;;;;;5016295;28;20224;-74
2021/09/03 06:22:58;;;;;;;1.03;1.03;;;;;;;;;;5013858;28;20193;-74
2021/09/03 06:25:25;;;;;;;1.30;1.20;;;;;;;;;;5012118;28;20224;-69
2021/09/03 06:27:53;;;;;;;0.00;0.00;;;;;;;;;;5014048;28;20367;-74
2021/09/03 06:30:20;;;;;;;0.20;0.20;;;;;;;;;;5010948;28;20204;-75
2021/09/03 06:32:49;;;;;;;0.00;0.00;;;;;;;;;;5011297;28;20886;-74
2021/09/03 06:35:16;;;;;;;1.10;1.10;;;;;;;;;;5022471;28;20208;-74
2021/09/03 06:37:45;;;;;;;0.37;0.30;;;;;;;;;;5021230;28;20212;-73
2021/09/03 06:40:12;;;;;;;0.33;0.33;;;;;;;;;;5028675;28;20205;-73
2021/09/03 06:42:39;;;;;;;2.47;0.97;;;;;;;;;;5021901;28;20211;-73
2021/09/03 06:45:09;;;;;;;0.70;0.70;;;;;;;;;;5014978;28;20212;-75
2021/09/03 06:47:36;;;;;;;0.00;0.00;;;;;;;;;;5016521;28;20259;-73
2021/09/03 06:50:06;;;;;;;0.50;0.50;;;;;;;;;;5016705;28;20189;-73
2021/09/03 06:52:33;;;;;;;2.83;0.77;;;;;;;;;;5014895;28;20811;-72
2021/09/03 06:55:02;;;;;;;0.00;0.00;;;;;;;;;;5017667;28;20209;-73
2021/09/03 06:57:30;;;;;;;1.80;1.60;;;;;;;;;;5010719;28;20219;-74
2021/09/03 06:59:57;;;;;;;0.73;0.47;;;;;;;;;;5012155;28;20236;-74
2021/09/03 07:02:24;;;;;;;1.60;1.60;;;;;;;;;;5010598;28;20614;-74
2021/09/03 07:04:52;;;;;;;1.00;0.90;;;;;;;;;;5018217;28;20201;-72
2021/09/03 07:07:20;;;;;;;0.57;0.57;;;;;;;;;;5019087;28;20220;-73
2021/09/03 07:09:48;;;;;;;1.07;1.00;;;;;;;;;;5022538;28;21093;-74
2021/09/03 07:12:15;;;;;;;0.10;0.10;;;;;;;;;;5020322;28;20208;-73
2021/09/03 07:14:43;;;;;;;0.00;0.00;;;;;;;;;;5008727;28;20224;-75
2021/09/03 07:17:11;;;;;;;0.00;0.00;;;;;;;;;;5008905;28;20207;-72
2021/09/03 07:19:38;;;;;;;0.13;0.13;;;;;;;;;;5009831;28;20212;-73
2021/09/03 07:22:06;;;;;;;0.00;0.00;;;;;;;;;;5007000;28;20212;-73
2021/09/03 07:24:35;;;;;;;2.80;1.00;;;;;;;;;;5010226;28;20212;-75
2021/09/03 07:27:03;;;;;;;0.00;0.00;;;;;;;;;;5011220;28;20207;-71
2021/09/03 07:29:30;;;;;;;0.00;0.00;;;;;;;;;;5005581;28;20255;-72
2021/09/03 07:31:57;;;;;;;1.50;1.40;;;;;;;;;;5009602;28;20215;-73
2021/09/03 07:34:25;;;;;;;0.00;0.00;;;;;;;;;;5016119;28;20208;-74
2021/09/03 07:36:52;;;;;;;1.20;1.10;;;;;;;;;;5012827;28;20678;-74
2021/09/03 07:39:21;;;;;;;0.00;0.00;;;;;;;;;;5004437;28;21062;-71
2021/09/03 07:41:50;;;;;;;0.20;0.20;;;;;;;;;;5007893;28;20200;-74
2021/09/03 07:44:17;;;;;;;0.00;0.00;;;;;;;;;;5017089;28;20209;-72
2021/09/03 07:46:44;;;;;;;0.77;0.77;;;;;;;;;;5005784;28;21864;-73
2021/09/03 07:49:12;;;;;;;0.73;0.73;;;;;;;;;;5012152;28;20236;-72
2021/09/03 07:51:40;;;;;;;0.00;0.00;;;;;;;;;;5007633;28;20204;-73
2021/09/03 07:54:07;;;;;;;0.13;0.13;;;;;;;;;;5012731;28;20986;-74
2021/09/03 07:56:34;;;;;;;2.17;0.90;;;;;;;;;;5019278;28;20208;-75
2021/09/03 07:59:03;;;;;;;0.00;0.00;;;;;;;;;;5017880;28;20243;-73
2021/09/03 08:01:31;;;;;;;0.00;0.00;;;;;;;;;;5021200;28;20217;-73
2021/09/03 08:03:58;;;;;;;0.00;0.00;;;;;;;;;;5017876;28;20203;-73
2021/09/03 08:06:26;;;;;;;0.00;0.00;;;;;;;;;;5019292;28;20204;-73
2021/09/03 08:08:53;;;;;;;0.00;0.00;;;;;;;;;;5014839;28;20227;-73
2021/09/03 08:11:21;;;;;;;0.00;0.00;;;;;;;;;;5016647;28;20708;-74
2021/09/03 08:13:48;;;;;;;0.00;0.00;;;;;;;;;;5019162;28;21019;-74
2021/09/03 08:16:17;;;;;;;0.80;0.80;;;;;;;;;;5018286;28;20212;-76
2021/09/03 08:18:44;;;;;;;2.78;0.52;;;;;;;;;;5006934;28;22339;-74
2021/09/03 08:21:12;;;;;;;0.00;0.00;;;;;;;;;;5015864;28;20216;-74
2021/09/03 08:23:39;;;;;;;0.00;0.00;;;;;;;;;;5014139;28;20216;-73
2021/09/03 08:26:07;;;;;;;0.00;0.00;;;;;;;;;;5018395;28;20255;-76
2021/09/03 08:28:34;;;;;;;0.68;0.30;;;;;;;;;;5017735;28;20231;-73
2021/09/03 08:31:02;;;;;;;0.00;0.00;;;;;;;;;;5016470;28;20196;-73
2021/09/03 08:33:30;;;;;;;1.33;1.23;;;;;;;;;;5017477;28;20204;-75
2021/09/03 08:35:58;;;;;;;0.70;0.70;;;;;;;;;;5018640;28;20236;-74
2021/09/03 08:38:25;;;;;;;0.93;0.50;;;;;;;;;;5017754;28;20208;-74
2021/09/03 08:40:52;;;;;;;0.60;0.60;;;;;;;;;;5015055;28;20213;-74
2021/09/03 08:43:20;;;;;;;0.00;0.00;;;;;;;;;;5019005;28;20211;-73
2021/09/03 08:45:48;;;;;;;0.00;0.00;;;;;;;;;;5008688;28;20209;-74
2021/09/03 08:48:19;;;;;;;2.22;0.88;;;;;;;;;;5010147;28;20202;-75
2021/09/03 08:50:47;;;;;;;0.22;0.22;;;;;;;;;;5016473;28;20201;-74
2021/09/03 08:53:18;;;;;;;0.43;0.35;;;;;;;;;;5019002;28;20207;-74
2021/09/03 08:55:46;;;;;;;1.42;1.13;;;;;;;;;;5016316;28;20743;-74
2021/09/03 08:58:13;;;;;;;0.00;0.00;;;;;;;;;;5013072;28;20255;-76
2021/09/03 09:00:42;;;;;;;1.75;1.27;;;;;;;;;;5010709;28;20205;-74
2021/09/03 09:03:13;;;;;;;1.85;0.85;;;;;;;;;;5006335;28;20946;-76
2021/09/03 09:06:01;;;;;;;0.00;0.00;;;;;;;;;;5007900;28;20205;-74
2021/09/03 09:08:31;;;;;;;0.52;0.52;;;;;;;;;;5001918;28;22230;-75
2021/09/03 09:10:59;;;;;;;0.28;0.28;;;;;;;;;;5006894;28;20266;-74
2021/09/03 09:13:28;;;;;;;1.77;0.80;;;;;;;;;;5007927;28;20671;-75
2021/09/03 09:16:07;;;;;;;0.00;0.00;;;;;;;;;;5009001;28;20204;-74
2021/09/03 09:18:36;;;;;;;0.00;0.00;;;;;;;;;;5016806;28;20212;-73
2021/09/03 09:21:07;;;;;;;0.47;0.30;;;;;;;;;;5010490;28;20204;-71
2021/09/03 09:23:45;;;;;;;5.20;1.58;;;;;;;;;;5012741;28;20210;-71
2021/09/03 09:26:38;;;;;;;0.08;0.08;;;;;;;;;;5037254;28;20209;-73
2021/09/03 09:29:12;;;;;;;1.10;0.90;;;;;;;;;;4997071;28;20240;-72
2021/09/03 09:31:40;;;;;;;1.48;1.25;;;;;;;;;;5009765;28;20287;-73
2021/09/03 09:34:18;;;;;;;0.30;0.30;;;;;;;;;;5011122;28;20204;-74
2021/09/03 09:36:46;;;;;;;0.43;0.43;;;;;;;;;;5021915;28;20235;-72
2021/09/03 09:39:16;;;;;;;0.55;0.32;;;;;;;;;;5023061;28;20201;-72
2021/09/03 09:41:44;;;;;;;0.00;0.00;;;;;;;;;;5046981;28;20211;-72
2021/09/03 09:44:11;;;;;;;1.23;1.20;;;;;;;;;;5019872;28;20765;-75
2021/09/03 09:46:39;;;;;;;1.17;1.17;;;;;;;;;;5010473;28;20217;-74
2021/09/03 09:49:14;;;;;;;0.52;0.38;;;;;;;;;;5012605;28;20664;-72
2021/09/03 09:51:48;;;;;;;2.17;1.80;;;;;;;;;;5013188;28;20699;-73
2021/09/03 09:54:19;;;;;;;0.43;0.43;;;;;;;;;;5023637;28;20204;-72
2021/09/03 09:56:48;;;;;;;0.10;0.10;;;;;;;;;;5023365;28;20215;-74
2021/09/03 09:59:16;;;;;;;0.32;0.32;;;;;;;;;;5018303;28;20223;-74
2021/09/03 10:01:44;;;;;;;0.10;0.10;;;;;;;;;;5018493;28;20213;-73
2021/09/03 10:04:13;;;;;;;2.67;1.63;;;;;;;;;;5015653;28;20262;-75
2021/09/03 10:06:41;;;;;;;1.17;1.10;;;;;;;;;;5016401;28;20197;-73
2021/09/03 10:09:09;;;;;;;0.00;0.00;;;;;;;;;;5011521;28;20231;-73
2021/09/03 10:11:39;;;;;;;0.30;0.30;;;;;;;;;;5013508;28;20204;-71
2021/09/03 10:14:07;;;;;;;1.88;1.30;;;;;;;;;;5014822;28;20196;-71
2021/09/03 10:16:35;;;;;;;0.43;0.38;;;;;;;;;;5022350;28;20208;-72
2021/09/03 10:19:05;;;;;;;0.05;0.05;;;;;;;;;;5018812;28;20212;-74
2021/09/03 10:21:35;;;;;;;0.52;0.52;;;;;;;;;;5019589;28;20200;-73
2021/09/03 10:24:07;;;;;;;0.22;0.22;;;;;;;;;;5020904;28;20223;-73
2021/09/03 10:26:36;;;;;;;0.00;0.00;;;;;;;;;;5021794;28;20209;-73
2021/09/03 10:29:28;;;;;;;2.05;0.88;;;;;;;;;;5019434;28;20220;-74
2021/09/03 10:32:23;;;;;;;0.38;0.38;;;;;;;;;;5018249;28;20208;-73
2021/09/03 10:35:04;;;;;;;0.73;0.73;;;;;;;;;;5016484;28;20208;-73
2021/09/03 10:37:38;;;;;;;0.30;0.30;;;;;;;;;;5019953;28;20238;-73
2021/09/03 10:40:23;;;;;;;3.50;1.35;;;;;;;;;;5023091;28;20218;-73
2021/09/03 10:42:55;;;;;;;0.00;0.00;;;;;;;;;;5018284;28;20212;-73
2021/09/03 10:45:25;;;;;;;0.90;0.40;;;;;;;;;;5019416;28;20208;-73
2021/09/03 10:48:00;;;;;;;0.60;0.60;;;;;;;;;;5022029;28;20254;-73
2021/09/03 10:50:28;;;;;;;0.00;0.00;;;;;;;;;;5017315;28;20232;-75
2021/09/03 10:53:14;;;;;;;0.05;0.05;;;;;;;;;;5020071;28;20220;-73
2021/09/03 10:55:52;;;;;;;0.52;0.52;;;;;;;;;;5021998;28;20257;-72
2021/09/03 10:58:32;;;;;;;0.30;0.30;;;;;;;;;;5019182;28;20323;-73
2021/09/03 11:01:19;;;;;;;0.70;0.38;;;;;;;;;;5020703;28;20200;-74
2021/09/03 11:03:48;;;;;;;0.82;0.82;;;;;;;;;;5017795;28;20253;-73
2021/09/03 11:06:16;;;;;;;0.40;0.30;;;;;;;;;;5016850;28;20203;-74
2021/09/03 11:08:44;;;;;;;2.00;1.67;;;;;;;;;;5020726;28;20205;-73
2021/09/03 11:11:24;;;;;;;5.20;1.27;;;;;;;;;;5018150;28;20717;-73
2021/09/03 11:13:52;;;;;;;0.00;0.00;;;;;;;;;;5018725;28;20208;-72
2021/09/03 11:16:35;;;;;;;0.55;0.55;;;;;;;;;;5020054;28;20193;-75
2021/09/03 11:19:08;;;;;;;0.75;0.75;;;;;;;;;;5022302;28;20203;-73
2021/09/03 11:21:37;;;;;;;0.65;0.65;;;;;;;;;;5019938;28;20535;-73
2021/09/03 11:24:06;;;;;;;2.75;2.55;;;;;;;;;;5019676;28;20197;-73
2021/09/03 11:26:35;;;;;;;0.08;0.08;;;;;;;;;;5022556;28;20296;-73
2021/09/03 11:29:03;;;;;;;5.82;3.00;;;;;;;;;;5027251;28;20216;-72
2021/09/03 11:31:31;;;;;;;0.73;0.20;;;;;;;;;;5020493;28;20258;-73
2021/09/03 11:34:04;;;;;;;0.00;0.00;;;;;;;;;;5020321;28;20200;-73
2021/09/03 11:36:45;;;;;;;0.57;0.57;;;;;;;;;;5016999;28;20209;-73
2021/09/03 11:39:15;;;;;;;0.10;0.10;;;;;;;;;;5021848;28;20208;-74
2021/09/03 11:41:48;;;;;;;0.88;0.88;;;;;;;;;;5020547;28;20208;-73
2021/09/03 11:44:16;;;;;;;0.08;0.08;;;;;;;;;;5016468;28;20208;-73
2021/09/03 11:46:43;;;;;;;0.70;0.70;;;;;;;;;;5016436;28;20307;-72
2021/09/03 11:49:11;;;;;;;0.03;0.03;;;;;;;;;;5020786;28;20211;-71
2021/09/03 11:51:38;;;;;;;6.93;2.45;;;;;;;;;;5021073;28;20201;-73
2021/09/03 11:54:07;;;;;;;0.65;0.65;;;;;;;;;;5016300;28;20211;-73
2021/09/03 11:56:35;;;;;;;1.15;0.43;;;;;;;;;;5021059;28;20208;-74
2021/09/03 11:59:08;;;;;;;3.60;3.25;;;;;;;;;;5019329;28;20242;-72
2021/09/03 12:01:36;;;;;;;0.08;0.08;;;;;;;;;;5016879;28;20208;-72
2021/09/03 12:04:08;;;;;;;0.00;0.00;;;;;;;;;;5013314;28;20361;-74
2021/09/03 12:06:36;;;;;;;0.00;0.00;;;;;;;;;;5017286;28;20752;-73
2021/09/03 12:09:05;;;;;;;3.08;2.58;;;;;;;;;;5018303;28;20748;-71
2021/09/03 12:11:36;;;;;;;1.10;0.73;;;;;;;;;;5016920;28;20228;-76
2021/09/03 12:14:04;;;;;;;0.85;0.75;;;;;;;;;;5017398;28;20219;-73
2021/09/03 12:16:37;;;;;;;0.57;0.57;;;;;;;;;;5018203;28;20217;-71
2021/09/03 12:19:06;;;;;;;0.10;0.10;;;;;;;;;;5016966;28;20251;-73
2021/09/03 12:21:34;;;;;;;0.10;0.10;;;;;;;;;;5017051;28;20607;-73
2021/09/03 12:24:02;;;;;;;0.17;0.17;;;;;;;;;;5015936;28;20215;-73
2021/09/03 12:26:38;;;;;;;1.98;1.80;;;;;;;;;;5017784;28;20212;-77
2021/09/03 12:29:09;;;;;;;0.08;0.08;;;;;;;;;;5018990;28;20208;-73
2021/09/03 12:31:37;;;;;;;3.20;2.00;;;;;;;;;;5018220;28;20250;-73
2021/09/03 12:34:09;;;;;;;1.02;0.95;;;;;;;;;;5018913;28;20212;-75
2021/09/03 12:36:37;;;;;;;1.50;1.20;;;;;;;;;;5019565;28;20204;-72
2021/09/03 12:39:05;;;;;;;0.20;0.20;;;;;;;;;;5017862;28;20569;-73
2021/09/03 12:41:33;;;;;;;0.28;0.28;;;;;;;;;;5016216;28;20213;-74
2021/09/03 12:44:04;;;;;;;2.05;1.73;;;;;;;;;;5015679;28;20223;-72
2021/09/03 12:46:35;;;;;;;0.00;0.00;;;;;;;;;;5018990;28;20212;-73
2021/09/03 12:49:05;;;;;;;0.00;0.00;;;;;;;;;;5019395;28;20701;-74
2021/09/03 12:51:34;;;;;;;0.00;0.00;;;;;;;;;;5019248;28;20239;-73
2021/09/03 12:54:02;;;;;;;0.32;0.32;;;;;;;;;;5019498;28;22112;-73
2021/09/03 12:56:29;;;;;;;0.00;0.00;;;;;;;;;;5016702;28;20209;-72
2021/09/03 12:58:57;;;;;;;0.40;0.30;;;;;;;;;;5020933;28;20227;-74
2021/09/03 13:01:26;;;;;;;0.10;0.10;;;;;;;;;;5020863;28;20188;-73
2021/09/03 13:03:54;;;;;;;1.30;0.75;;;;;;;;;;5017812;28;20211;-73
2021/09/03 13:06:21;;;;;;;0.08;0.08;;;;;;;;;;5016749;28;20211;-73
2021/09/03 13:08:49;;;;;;;0.85;0.63;;;;;;;;;;5018532;28;20569;-77
2021/09/03 13:11:17;;;;;;;0.00;0.00;;;;;;;;;;5016201;28;20732;-74
2021/09/03 13:13:46;;;;;;;1.63;1.52;;;;;;;;;;5017003;28;20200;-73
2021/09/03 13:16:13;;;;;;;1.17;1.08;;;;;;;;;;5018868;28;20957;-73
2021/09/03 13:18:42;;;;;;;1.20;1.20;;;;;;;;;;5019119;28;20203;-73
2021/09/03 13:21:10;;;;;;;0.20;0.20;;;;;;;;;;5016814;28;20200;-73
2021/09/03 13:23:37;;;;;;;0.95;0.95;;;;;;;;;;5019215;28;20573;-74
2021/09/03 13:26:06;;;;;;;0.57;0.57;;;;;;;;;;5015651;28;20573;-74
2021/09/03 13:28:33;;;;;;;0.25;0.25;;;;;;;;;;5017730;28;20228;-74
2021/09/03 13:31:01;;;;;;;0.17;0.17;;;;;;;;;;5016500;28;20228;-73
2021/09/03 13:33:28;;;;;;;1.70;0.77;;;;;;;;;;5021334;28;20214;-77
2021/09/03 13:35:57;;;;;;;0.17;0.13;;;;;;;;;;5021786;28;20569;-73
2021/09/03 13:38:24;;;;;;;0.00;0.00;;;;;;;;;;5017364;28;20208;-76
2021/09/03 13:40:52;;;;;;;0.80;0.80;;;;;;;;;;5022821;28;20204;-73
2021/09/03 13:43:19;;;;;;;1.23;1.15;;;;;;;;;;5018494;28;20212;-73
2021/09/03 13:45:47;;;;;;;1.73;0.57;;;;;;;;;;5020640;28;20207;-74
2021/09/03 13:48:14;;;;;;;0.65;0.55;;;;;;;;;;5019270;28;20203;-73
2021/09/03 13:50:41;;;;;;;3.25;0.85;;;;;;;;;;5020522;28;20228;-74
2021/09/03 13:53:10;;;;;;;1.77;1.38;;;;;;;;;;5021238;28;20234;-73
2021/09/03 13:55:38;;;;;;;0.17;0.17;;;;;;;;;;5022986;28;20201;-75
2021/09/03 13:58:06;;;;;;;0.38;0.22;;;;;;;;;;5021094;28;20228;-73
2021/09/03 14:00:33;;;;;;;3.50;2.75;;;;;;;;;;5020028;28;20899;-74
2021/09/03 14:03:00;;;;;;;0.32;0.32;;;;;;;;;;5021770;28;20204;-73
2021/09/03 14:05:28;;;;;;;0.00;0.00;;;;;;;;;;5021708;28;20624;-76
2021/09/03 14:07:55;;;;;;;0.30;0.30;;;;;;;;;;5021391;28;20555;-73
2021/09/03 14:10:24;;;;;;;0.20;0.20;;;;;;;;;;5020810;28;20604;-76
2021/09/03 14:12:52;;;;;;;0.20;0.20;;;;;;;;;;5018872;28;20205;-73
2021/09/03 14:15:19;;;;;;;0.75;0.75;;;;;;;;;;5018271;28;20208;-75
2021/09/03 14:17:47;;;;;;;0.10;0.10;;;;;;;;;;5022327;28;21272;-75
2021/09/03 14:20:21;;;;;;;0.80;0.52;;;;;;;;;;5020109;28;20223;-75
2021/09/03 14:22:48;;;;;;;0.63;0.52;;;;;;;;;;5022297;28;20304;-73
2021/09/03 14:25:17;;;;;;;0.00;0.00;;;;;;;;;;5022608;28;20209;-73
2021/09/03 14:27:46;;;;;;;0.40;0.40;;;;;;;;;;5020390;28;20197;-73
2021/09/03 14:30:14;;;;;;;0.10;0.10;;;;;;;;;;5018276;28;20704;-74
2021/09/03 14:32:42;;;;;;;0.47;0.47;;;;;;;;;;5020310;28;20208;-73
2021/09/03 14:35:09;;;;;;;0.30;0.20;;;;;;;;;;5022256;28;20205;-73
2021/09/03 14:37:37;;;;;;;0.75;0.75;;;;;;;;;;5017787;28;20691;-73
2021/09/03 14:40:05;;;;;;;0.00;0.00;;;;;;;;;;5019140;28;20196;-73
2021/09/03 14:42:33;;;;;;;0.10;0.10;;;;;;;;;;5019921;28;20207;-74
2021/09/03 14:45:02;;;;;;;0.85;0.70;;;;;;;;;;5022475;28;22270;-73
2021/09/03 14:47:29;;;;;;;1.52;0.47;;;;;;;;;;5019842;28;20212;-77
2021/09/03 14:49:56;;;;;;;1.02;0.93;;;;;;;;;;5019821;28;20201;-73
2021/09/03 14:52:24;;;;;;;0.10;0.10;;;;;;;;;;5017716;28;20740;-73